sensor_id;sensor_type;location;lat;lon;timestamp;pressure;altitude;pressure_sealevel;temperature;humidity
49611;BME280;35515;48.766;9.176;2022-08-30T00:01:26;98562.09;;;19.87;66.23
49611;BME280;35515;48.766;9.176;2022-08-30T00:03:54;98565.13;;;19.91;66.06
49611;BME280;35515;48.766;9.176;2022-08-30T00:06:23;98564.00;;;19.86;66.26
49611;BME280;35515;48.766;9.176;2022-08-30T00:08:50;98548.59;;;19.85;66.04
49611;BME280;35515;48.766;9.176;2022-08-30T00:11:20;98561.25;;;19.86;65.84
49611;BME280;35515;48.766;9.176;2022-08-30T00:13:48;98561.16;;;19.76;66.01
49611;BME280;35515;48.766;9.176;2022-08-30T00:16:18;98558.59;;;19.64;66.35
49611;BME280;35515;48.766;9.176;2022-08-30T00:18:47;98562.72;;;19.67;66.15
49611;BME280;35515;48.766;9.176;2022-08-30T00:21:15;98557.78;;;19.64;66.31
49611;BME280;35515;48.766;9.176;2022-08-30T00:23:42;98560.25;;;19.65;66.13
49611;BME280;35515;48.766;9.176;2022-08-30T00:26:09;98572.59;;;19.63;66.46
49611;BME280;35515;48.766;9.176;2022-08-30T00:28:35;98569.34;;;19.71;66.10
49611;BME280;35515;48.766;9.176;2022-08-30T00:31:03;98579.13;;;19.57;66.70
49611;BME280;35515;48.766;9.176;2022-08-30T00:33:30;98574.25;;;19.64;66.55
49611;BME280;35515;48.766;9.176;2022-08-30T00:35:56;98574.84;;;19.71;66.12
49611;BME280;35515;48.766;9.176;2022-08-30T00:38:24;98566.06;;;19.69;66.27
49611;BME280;35515;48.766;9.176;2022-08-30T00:40:51;98571.16;;;19.55;66.83
49611;BME280;35515;48.766;9.176;2022-08-30T00:43:22;98573.31;;;19.48;67.35
49611;BME280;35515;48.766;9.176;2022-08-30T00:45:49;98575.78;;;19.49;67.27
49611;BME280;35515;48.766;9.176;2022-08-30T00:48:16;98574.06;;;19.43;67.52
49611;BME280;35515;48.766;9.176;2022-08-30T00:50:46;98572.88;;;19.29;68.26
49611;BME280;35515;48.766;9.176;2022-08-30T00:53:16;98570.47;;;19.37;67.75
49611;BME280;35515;48.766;9.176;2022-08-30T00:55:46;98573.75;;;19.34;68.05
49611;BME280;35515;48.766;9.176;2022-08-30T00:58:17;98563.78;;;19.28;68.23
49611;BME280;35515;48.766;9.176;2022-08-30T01:00:46;98571.75;;;19.25;68.19
49611;BME280;35515;48.766;9.176;2022-08-30T01:03:14;98570.88;;;19.24;68.19
49611;BME280;35515;48.766;9.176;2022-08-30T01:05:41;98572.91;;;19.34;68.05
49611;BME280;35515;48.766;9.176;2022-08-30T01:08:08;98573.91;;;19.23;68.22
49611;BME280;35515;48.766;9.176;2022-08-30T01:10:35;98573.38;;;19.26;68.28
49611;BME280;35515;48.766;9.176;2022-08-30T01:13:04;98569.53;;;19.27;68.08
49611;BME280;35515;48.766;9.176;2022-08-30T01:15:32;98578.16;;;19.35;67.87
49611;BME280;35515;48.766;9.176;2022-08-30T01:18:00;98576.28;;;19.41;67.66
49611;BME280;35515;48.766;9.176;2022-08-30T01:20:32;98571.88;;;19.40;67.62
49611;BME280;35515;48.766;9.176;2022-08-30T01:23:07;98574.94;;;19.16;68.31
49611;BME280;35515;48.766;9.176;2022-08-30T01:25:36;98571.53;;;19.04;68.84
49611;BME280;35515;48.766;9.176;2022-08-30T01:28:09;98572.88;;;19.01;69.11
49611;BME280;35515;48.766;9.176;2022-08-30T01:30:37;98565.00;;;19.10;68.67
49611;BME280;35515;48.766;9.176;2022-08-30T01:33:06;98566.25;;;18.97;69.44
49611;BME280;35515;48.766;9.176;2022-08-30T01:35:48;98573.59;;;18.92;69.50
49611;BME280;35515;48.766;9.176;2022-08-30T01:38:20;98572.53;;;18.98;69.50
49611;BME280;35515;48.766;9.176;2022-08-30T01:40:47;98574.75;;;18.96;69.41
49611;BME280;35515;48.766;9.176;2022-08-30T01:43:14;98570.94;;;19.02;69.25
49611;BME280;35515;48.766;9.176;2022-08-30T01:45:42;98567.97;;;19.03;68.98
49611;BME280;35515;48.766;9.176;2022-08-30T01:48:09;98572.50;;;19.20;68.37
49611;BME280;35515;48.766;9.176;2022-08-30T01:50:37;98579.66;;;19.21;68.35
49611;BME280;35515;48.766;9.176;2022-08-30T01:53:03;98584.84;;;18.90;69.43
49611;BME280;35515;48.766;9.176;2022-08-30T01:55:32;98586.09;;;18.82;69.96
49611;BME280;35515;48.766;9.176;2022-08-30T01:57:59;98584.09;;;18.78;70.42
49611;BME280;35515;48.766;9.176;2022-08-30T02:00:26;98583.81;;;18.74;70.53
49611;BME280;35515;48.766;9.176;2022-08-30T02:02:53;98582.25;;;18.83;70.17
49611;BME280;35515;48.766;9.176;2022-08-30T02:05:20;98587.09;;;18.76;70.26
49611;BME280;35515;48.766;9.176;2022-08-30T02:07:47;98576.84;;;18.66;70.67
49611;BME280;35515;48.766;9.176;2022-08-30T02:10:13;98584.28;;;18.71;70.86
49611;BME280;35515;48.766;9.176;2022-08-30T02:12:41;98585.56;;;18.85;69.98
49611;BME280;35515;48.766;9.176;2022-08-30T02:15:08;98582.50;;;18.82;70.26
49611;BME280;35515;48.766;9.176;2022-08-30T02:17:35;98580.53;;;18.77;70.50
49611;BME280;35515;48.766;9.176;2022-08-30T02:20:03;98579.31;;;18.68;70.86
49611;BME280;35515;48.766;9.176;2022-08-30T02:22:31;98576.19;;;18.59;71.13
49611;BME280;35515;48.766;9.176;2022-08-30T02:24:57;98573.72;;;18.58;70.97
49611;BME280;35515;48.766;9.176;2022-08-30T02:27:25;98574.16;;;18.49;71.52
49611;BME280;35515;48.766;9.176;2022-08-30T02:29:53;98568.16;;;18.52;71.29
49611;BME280;35515;48.766;9.176;2022-08-30T02:32:20;98569.09;;;18.63;71.02
49611;BME280;35515;48.766;9.176;2022-08-30T02:34:46;98563.88;;;18.62;70.58
49611;BME280;35515;48.766;9.176;2022-08-30T02:37:14;98569.16;;;18.68;70.49
49611;BME280;35515;48.766;9.176;2022-08-30T02:39:40;98558.00;;;18.75;70.16
49611;BME280;35515;48.766;9.176;2022-08-30T02:42:08;98551.69;;;18.52;71.44
49611;BME280;35515;48.766;9.176;2022-08-30T02:44:34;98556.09;;;18.53;71.88
49611;BME280;35515;48.766;9.176;2022-08-30T02:47:02;98554.63;;;18.68;70.68
49611;BME280;35515;48.766;9.176;2022-08-30T02:49:29;98553.94;;;18.55;71.07
49611;BME280;35515;48.766;9.176;2022-08-30T02:51:55;98552.00;;;18.78;70.06
49611;BME280;35515;48.766;9.176;2022-08-30T02:54:22;98558.25;;;18.74;70.33
49611;BME280;35515;48.766;9.176;2022-08-30T02:56:49;98568.34;;;18.68;70.13
49611;BME280;35515;48.766;9.176;2022-08-30T02:59:16;98564.06;;;18.55;70.62
49611;BME280;35515;48.766;9.176;2022-08-30T03:01:43;98563.97;;;18.45;71.32
49611;BME280;35515;48.766;9.176;2022-08-30T03:04:11;98551.59;;;18.42;71.36
49611;BME280;35515;48.766;9.176;2022-08-30T03:06:39;98548.66;;;18.27;71.91
49611;BME280;35515;48.766;9.176;2022-08-30T03:09:05;98548.84;;;18.20;72.36
49611;BME280;35515;48.766;9.176;2022-08-30T03:11:32;98543.16;;;18.27;72.05
49611;BME280;35515;48.766;9.176;2022-08-30T03:13:59;98533.72;;;18.17;72.73
49611;BME280;35515;48.766;9.176;2022-08-30T03:16:26;98543.47;;;18.08;73.11
49611;BME280;35515;48.766;9.176;2022-08-30T03:18:52;98536.06;;;18.09;73.43
49611;BME280;35515;48.766;9.176;2022-08-30T03:21:20;98537.59;;;18.21;72.81
49611;BME280;35515;48.766;9.176;2022-08-30T03:23:47;98530.97;;;18.17;72.97
49611;BME280;35515;48.766;9.176;2022-08-30T03:26:14;98531.56;;;18.19;72.93
49611;BME280;35515;48.766;9.176;2022-08-30T03:28:41;98532.59;;;18.35;72.08
49611;BME280;35515;48.766;9.176;2022-08-30T03:31:08;98534.56;;;18.40;71.80
49611;BME280;35515;48.766;9.176;2022-08-30T03:33:35;98538.25;;;18.29;71.92
49611;BME280;35515;48.766;9.176;2022-08-30T03:36:04;98542.56;;;18.25;72.17
49611;BME280;35515;48.766;9.176;2022-08-30T03:38:32;98541.13;;;18.17;72.39
49611;BME280;35515;48.766;9.176;2022-08-30T03:40:59;98538.50;;;18.05;73.15
49611;BME280;35515;48.766;9.176;2022-08-30T03:43:25;98534.00;;;17.99;73.63
49611;BME280;35515;48.766;9.176;2022-08-30T03:45:52;98533.19;;;17.98;73.36
49611;BME280;35515;48.766;9.176;2022-08-30T03:48:18;98532.34;;;17.98;73.86
49611;BME280;35515;48.766;9.176;2022-08-30T03:50:45;98537.16;;;17.91;74.07
49611;BME280;35515;48.766;9.176;2022-08-30T03:53:12;98541.69;;;17.97;73.86
49611;BME280;35515;48.766;9.176;2022-08-30T03:55:40;98537.16;;;17.91;74.12
49611;BME280;35515;48.766;9.176;2022-08-30T03:58:06;98534.19;;;17.92;74.24
49611;BME280;35515;48.766;9.176;2022-08-30T04:00:33;98537.28;;;17.96;73.94
49611;BME280;35515;48.766;9.176;2022-08-30T04:02:59;98544.91;;;17.94;74.16
49611;BME280;35515;48.766;9.176;2022-08-30T04:05:26;98545.22;;;17.97;73.80
49611;BME280;35515;48.766;9.176;2022-08-30T04:07:53;98539.31;;;18.05;73.22
49611;BME280;35515;48.766;9.176;2022-08-30T04:10:20;98546.13;;;18.03;73.20
49611;BME280;35515;48.766;9.176;2022-08-30T04:12:49;98535.94;;;17.81;74.07
49611;BME280;35515;48.766;9.176;2022-08-30T04:15:17;98538.16;;;17.84;73.99
49611;BME280;35515;48.766;9.176;2022-08-30T04:17:45;98538.34;;;17.78;74.21
49611;BME280;35515;48.766;9.176;2022-08-30T04:20:11;98546.00;;;17.76;74.75
49611;BME280;35515;48.766;9.176;2022-08-30T04:22:38;98540.50;;;17.76;74.65
49611;BME280;35515;48.766;9.176;2022-08-30T04:25:06;98547.97;;;17.80;74.35
49611;BME280;35515;48.766;9.176;2022-08-30T04:27:33;98549.00;;;17.74;75.24
49611;BME280;35515;48.766;9.176;2022-08-30T04:30:01;98546.25;;;17.74;75.30
49611;BME280;35515;48.766;9.176;2022-08-30T04:32:27;98554.47;;;17.74;75.23
49611;BME280;35515;48.766;9.176;2022-08-30T04:34:55;98547.97;;;17.80;75.31
49611;BME280;35515;48.766;9.176;2022-08-30T04:37:22;98559.09;;;17.91;74.62
49611;BME280;35515;48.766;9.176;2022-08-30T04:39:49;98553.00;;;17.88;74.38
49611;BME280;35515;48.766;9.176;2022-08-30T04:42:15;98549.94;;;18.02;73.65
49611;BME280;35515;48.766;9.176;2022-08-30T04:44:42;98557.84;;;18.15;72.76
49611;BME280;35515;48.766;9.176;2022-08-30T04:47:10;98562.75;;;17.96;73.57
49611;BME280;35515;48.766;9.176;2022-08-30T04:49:37;98569.41;;;17.83;74.35
49611;BME280;35515;48.766;9.176;2022-08-30T04:52:04;98566.06;;;17.81;74.52
49611;BME280;35515;48.766;9.176;2022-08-30T04:54:33;98562.44;;;17.76;74.72
49611;BME280;35515;48.766;9.176;2022-08-30T04:56:59;98562.19;;;17.77;74.77
49611;BME280;35515;48.766;9.176;2022-08-30T04:59:26;98570.56;;;17.70;75.17
49611;BME280;35515;48.766;9.176;2022-08-30T05:01:53;98570.81;;;17.69;75.29
49611;BME280;35515;48.766;9.176;2022-08-30T05:04:21;98568.09;;;17.69;75.31
49611;BME280;35515;48.766;9.176;2022-08-30T05:06:48;98584.09;;;17.77;74.73
49611;BME280;35515;48.766;9.176;2022-08-30T05:09:14;98587.50;;;17.67;75.19
49611;BME280;35515;48.766;9.176;2022-08-30T05:11:41;98585.50;;;17.80;74.85
49611;BME280;35515;48.766;9.176;2022-08-30T05:14:08;98598.13;;;17.98;74.00
49611;BME280;35515;48.766;9.176;2022-08-30T05:16:35;98589.06;;;17.80;74.73
49611;BME280;35515;48.766;9.176;2022-08-30T05:19:02;98600.63;;;17.65;75.32
49611;BME280;35515;48.766;9.176;2022-08-30T05:21:30;98598.94;;;17.64;75.54
49611;BME280;35515;48.766;9.176;2022-08-30T05:23:59;98595.06;;;17.60;76.07
49611;BME280;35515;48.766;9.176;2022-08-30T05:26:27;98594.72;;;17.74;75.29
49611;BME280;35515;48.766;9.176;2022-08-30T05:28:54;98598.63;;;17.78;75.29
49611;BME280;35515;48.766;9.176;2022-08-30T05:31:24;98598.19;;;17.86;75.17
49611;BME280;35515;48.766;9.176;2022-08-30T05:33:52;98592.47;;;17.87;75.16
49611;BME280;35515;48.766;9.176;2022-08-30T05:36:20;98594.31;;;17.99;74.83
49611;BME280;35515;48.766;9.176;2022-08-30T05:38:49;98591.56;;;17.99;74.77
49611;BME280;35515;48.766;9.176;2022-08-30T05:41:17;98586.50;;;18.08;74.18
49611;BME280;35515;48.766;9.176;2022-08-30T05:43:44;98580.34;;;18.00;74.71
49611;BME280;35515;48.766;9.176;2022-08-30T05:46:12;98581.19;;;18.01;74.90
49611;BME280;35515;48.766;9.176;2022-08-30T05:48:43;98583.88;;;17.96;75.28
49611;BME280;35515;48.766;9.176;2022-08-30T05:51:13;98585.00;;;18.00;75.23
49611;BME280;35515;48.766;9.176;2022-08-30T05:53:42;98572.03;;;18.12;74.38
49611;BME280;35515;48.766;9.176;2022-08-30T05:56:16;98569.47;;;18.05;74.91
49611;BME280;35515;48.766;9.176;2022-08-30T05:58:43;98577.66;;;18.23;73.88
49611;BME280;35515;48.766;9.176;2022-08-30T06:01:18;98580.31;;;18.17;74.19
49611;BME280;35515;48.766;9.176;2022-08-30T06:03:45;98586.63;;;18.18;74.40
49611;BME280;35515;48.766;9.176;2022-08-30T06:06:11;98590.78;;;18.20;74.16
49611;BME280;35515;48.766;9.176;2022-08-30T06:08:38;98596.41;;;18.31;74.10
49611;BME280;35515;48.766;9.176;2022-08-30T06:11:04;98596.75;;;18.34;73.80
49611;BME280;35515;48.766;9.176;2022-08-30T06:13:33;98598.59;;;18.29;74.11
49611;BME280;35515;48.766;9.176;2022-08-30T06:15:59;98600.22;;;18.30;74.18
49611;BME280;35515;48.766;9.176;2022-08-30T06:18:26;98600.91;;;18.37;73.92
49611;BME280;35515;48.766;9.176;2022-08-30T06:20:52;98599.38;;;18.46;73.79
49611;BME280;35515;48.766;9.176;2022-08-30T06:23:19;98593.03;;;18.46;73.76
49611;BME280;35515;48.766;9.176;2022-08-30T06:25:46;98597.84;;;18.55;73.37
49611;BME280;35515;48.766;9.176;2022-08-30T06:28:13;98601.72;;;18.60;73.27
49611;BME280;35515;48.766;9.176;2022-08-30T06:30:42;98594.66;;;18.64;73.28
49611;BME280;35515;48.766;9.176;2022-08-30T06:33:09;98596.94;;;18.72;73.01
49611;BME280;35515;48.766;9.176;2022-08-30T06:35:36;98592.84;;;18.75;72.75
49611;BME280;35515;48.766;9.176;2022-08-30T06:38:03;98589.59;;;18.78;73.22
49611;BME280;35515;48.766;9.176;2022-08-30T06:40:30;98592.72;;;18.86;72.82
49611;BME280;35515;48.766;9.176;2022-08-30T06:42:56;98592.03;;;18.96;72.04
49611;BME280;35515;48.766;9.176;2022-08-30T06:45:23;98588.53;;;19.01;71.84
49611;BME280;35515;48.766;9.176;2022-08-30T06:47:51;98589.06;;;19.03;71.55
49611;BME280;35515;48.766;9.176;2022-08-30T06:50:17;98588.00;;;19.04;71.48
49611;BME280;35515;48.766;9.176;2022-08-30T06:52:44;98591.00;;;19.02;71.86
49611;BME280;35515;48.766;9.176;2022-08-30T06:55:13;98592.66;;;19.03;72.51
49611;BME280;35515;48.766;9.176;2022-08-30T06:57:40;98592.91;;;19.02;72.18
49611;BME280;35515;48.766;9.176;2022-08-30T07:00:09;98582.81;;;19.08;71.79
49611;BME280;35515;48.766;9.176;2022-08-30T07:02:37;98580.06;;;19.08;71.63
49611;BME280;35515;48.766;9.176;2022-08-30T07:05:06;98585.31;;;19.09;71.55
49611;BME280;35515;48.766;9.176;2022-08-30T07:07:36;98582.63;;;19.14;72.09
49611;BME280;35515;48.766;9.176;2022-08-30T07:10:03;98579.06;;;19.19;71.86
49611;BME280;35515;48.766;9.176;2022-08-30T07:12:30;98580.53;;;19.27;71.27
49611;BME280;35515;48.766;9.176;2022-08-30T07:14:57;98589.84;;;19.26;71.95
49611;BME280;35515;48.766;9.176;2022-08-30T07:17:23;98587.09;;;19.26;72.55
49611;BME280;35515;48.766;9.176;2022-08-30T07:20:06;98593.22;;;19.33;71.76
49611;BME280;35515;48.766;9.176;2022-08-30T07:22:33;98587.25;;;19.41;72.03
49611;BME280;35515;48.766;9.176;2022-08-30T07:25:00;98584.50;;;19.41;72.02
49611;BME280;35515;48.766;9.176;2022-08-30T07:27:26;98597.22;;;19.47;71.92
49611;BME280;35515;48.766;9.176;2022-08-30T07:29:53;98592.53;;;19.48;71.53
49611;BME280;35515;48.766;9.176;2022-08-30T07:32:20;98593.94;;;19.50;71.60
49611;BME280;35515;48.766;9.176;2022-08-30T07:34:46;98592.06;;;19.56;71.59
49611;BME280;35515;48.766;9.176;2022-08-30T07:37:14;98599.31;;;19.67;71.05
49611;BME280;35515;48.766;9.176;2022-08-30T07:39:41;98591.66;;;19.75;70.72
49611;BME280;35515;48.766;9.176;2022-08-30T07:42:07;98590.47;;;19.98;69.81
49611;BME280;35515;48.766;9.176;2022-08-30T07:44:34;98589.47;;;20.09;69.04
49611;BME280;35515;48.766;9.176;2022-08-30T07:47:01;98590.59;;;20.13;69.09
49611;BME280;35515;48.766;9.176;2022-08-30T07:49:28;98593.63;;;20.17;69.07
49611;BME280;35515;48.766;9.176;2022-08-30T07:51:55;98593.13;;;20.25;68.78
49611;BME280;35515;48.766;9.176;2022-08-30T07:54:23;98584.16;;;20.45;67.58
49611;BME280;35515;48.766;9.176;2022-08-30T07:56:50;98584.44;;;20.49;67.38
49611;BME280;35515;48.766;9.176;2022-08-30T07:59:19;98588.84;;;20.50;67.52
49611;BME280;35515;48.766;9.176;2022-08-30T08:01:46;98587.22;;;20.54;67.34
49611;BME280;35515;48.766;9.176;2022-08-30T08:04:13;98590.91;;;20.80;66.14
49611;BME280;35515;48.766;9.176;2022-08-30T08:06:40;98580.97;;;20.69;66.55
49611;BME280;35515;48.766;9.176;2022-08-30T08:09:07;98584.50;;;20.64;66.82
49611;BME280;35515;48.766;9.176;2022-08-30T08:11:35;98579.94;;;20.85;65.91
49611;BME280;35515;48.766;9.176;2022-08-30T08:14:02;98588.75;;;20.98;65.38
49611;BME280;35515;48.766;9.176;2022-08-30T08:16:31;98588.78;;;21.03;65.08
49611;BME280;35515;48.766;9.176;2022-08-30T08:18:58;98593.50;;;21.08;64.74
49611;BME280;35515;48.766;9.176;2022-08-30T08:21:25;98583.28;;;21.03;65.02
49611;BME280;35515;48.766;9.176;2022-08-30T08:23:52;98584.94;;;21.04;64.90
49611;BME280;35515;48.766;9.176;2022-08-30T08:26:19;98586.63;;;21.10;64.86
49611;BME280;35515;48.766;9.176;2022-08-30T08:28:48;98592.66;;;21.12;64.59
49611;BME280;35515;48.766;9.176;2022-08-30T08:31:15;98594.88;;;21.20;64.59
49611;BME280;35515;48.766;9.176;2022-08-30T08:33:42;98587.75;;;21.19;64.88
49611;BME280;35515;48.766;9.176;2022-08-30T08:36:09;98585.00;;;21.25;64.32
49611;BME280;35515;48.766;9.176;2022-08-30T08:38:35;98581.69;;;21.33;64.09
49611;BME280;35515;48.766;9.176;2022-08-30T08:41:05;98580.34;;;21.61;63.06
49611;BME280;35515;48.766;9.176;2022-08-30T08:43:35;98574.84;;;21.61;63.27
49611;BME280;35515;48.766;9.176;2022-08-30T08:46:09;98572.38;;;21.70;62.84
49611;BME280;35515;48.766;9.176;2022-08-30T08:48:40;98578.41;;;21.93;61.88
49611;BME280;35515;48.766;9.176;2022-08-30T08:51:09;98566.00;;;21.90;62.36
49611;BME280;35515;48.766;9.176;2022-08-30T08:53:58;98569.56;;;22.06;61.83
49611;BME280;35515;48.766;9.176;2022-08-30T08:56:26;98570.91;;;22.19;61.58
49611;BME280;35515;48.766;9.176;2022-08-30T08:58:54;98568.13;;;22.19;61.44
49611;BME280;35515;48.766;9.176;2022-08-30T09:01:24;98569.53;;;22.16;61.67
49611;BME280;35515;48.766;9.176;2022-08-30T09:03:51;98568.44;;;22.07;62.11
49611;BME280;35515;48.766;9.176;2022-08-30T09:06:39;98568.13;;;22.24;61.50
49611;BME280;35515;48.766;9.176;2022-08-30T09:09:08;98570.06;;;22.29;61.42
49611;BME280;35515;48.766;9.176;2022-08-30T09:11:36;98563.41;;;22.45;60.86
49611;BME280;35515;48.766;9.176;2022-08-30T09:14:05;98560.63;;;22.45;60.41
49611;BME280;35515;48.766;9.176;2022-08-30T09:16:47;98559.00;;;22.39;60.95
49611;BME280;35515;48.766;9.176;2022-08-30T09:19:39;98556.19;;;22.54;60.16
49611;BME280;35515;48.766;9.176;2022-08-30T09:22:22;98546.22;;;22.59;59.95
49611;BME280;35515;48.766;9.176;2022-08-30T09:24:52;98549.81;;;22.59;59.88
49611;BME280;35515;48.766;9.176;2022-08-30T09:27:26;98542.09;;;22.56;59.69
49611;BME280;35515;48.766;9.176;2022-08-30T09:30:01;98541.16;;;22.76;59.14
49611;BME280;35515;48.766;9.176;2022-08-30T09:32:33;98542.31;;;22.70;59.00
49611;BME280;35515;48.766;9.176;2022-08-30T09:35:01;98538.91;;;22.88;58.34
49611;BME280;35515;48.766;9.176;2022-08-30T09:37:35;98536.66;;;22.96;58.10
49611;BME280;35515;48.766;9.176;2022-08-30T09:40:09;98538.94;;;22.83;58.48
49611;BME280;35515;48.766;9.176;2022-08-30T09:42:37;98533.44;;;22.78;58.63
49611;BME280;35515;48.766;9.176;2022-08-30T09:45:13;98531.16;;;22.91;57.98
49611;BME280;35515;48.766;9.176;2022-08-30T09:47:44;98538.34;;;22.92;57.78
49611;BME280;35515;48.766;9.176;2022-08-30T09:50:12;98524.50;;;22.97;57.26
49611;BME280;35515;48.766;9.176;2022-08-30T09:52:56;98523.31;;;23.03;56.47
49611;BME280;35515;48.766;9.176;2022-08-30T09:55:35;98527.69;;;23.19;56.18
49611;BME280;35515;48.766;9.176;2022-08-30T09:58:09;98521.91;;;23.11;56.65
49611;BME280;35515;48.766;9.176;2022-08-30T10:00:41;98515.56;;;23.15;55.92
49611;BME280;35515;48.766;9.176;2022-08-30T10:03:22;98515.78;;;23.19;56.34
49611;BME280;35515;48.766;9.176;2022-08-30T10:05:56;98514.31;;;23.32;55.60
49611;BME280;35515;48.766;9.176;2022-08-30T10:08:31;98504.28;;;23.41;54.97
49611;BME280;35515;48.766;9.176;2022-08-30T10:11:03;98507.00;;;23.46;54.05
49611;BME280;35515;48.766;9.176;2022-08-30T10:13:43;98503.19;;;23.42;54.23
49611;BME280;35515;48.766;9.176;2022-08-30T10:16:24;98502.41;;;23.66;51.60
49611;BME280;35515;48.766;9.176;2022-08-30T10:19:02;98493.81;;;23.67;51.54
49611;BME280;35515;48.766;9.176;2022-08-30T10:21:35;98498.56;;;23.62;52.37
49611;BME280;35515;48.766;9.176;2022-08-30T10:24:06;98501.63;;;23.60;53.11
49611;BME280;35515;48.766;9.176;2022-08-30T10:26:36;98487.44;;;23.67;51.62
49611;BME280;35515;48.766;9.176;2022-08-30T10:29:08;98490.03;;;23.87;49.28
49611;BME280;35515;48.766;9.176;2022-08-30T10:31:39;98476.75;;;23.90;48.87
49611;BME280;35515;48.766;9.176;2022-08-30T10:34:12;98480.00;;;23.97;48.59
49611;BME280;35515;48.766;9.176;2022-08-30T10:36:42;98477.28;;;23.92;48.38
49611;BME280;35515;48.766;9.176;2022-08-30T10:39:15;98470.91;;;23.91;47.00
49611;BME280;35515;48.766;9.176;2022-08-30T10:41:48;98475.63;;;23.91;45.66
49611;BME280;35515;48.766;9.176;2022-08-30T10:44:19;98480.63;;;23.88;46.58
49611;BME280;35515;48.766;9.176;2022-08-30T10:46:57;98465.38;;;23.91;45.77
49611;BME280;35515;48.766;9.176;2022-08-30T10:49:45;98464.00;;;23.88;45.52
49611;BME280;35515;48.766;9.176;2022-08-30T10:52:20;98465.13;;;23.87;46.45
49611;BME280;35515;48.766;9.176;2022-08-30T10:54:50;98473.16;;;23.89;47.31
49611;BME280;35515;48.766;9.176;2022-08-30T10:57:18;98470.63;;;23.93;46.29
49611;BME280;35515;48.766;9.176;2022-08-30T10:59:48;98465.50;;;24.05;45.76
49611;BME280;35515;48.766;9.176;2022-08-30T11:02:28;98463.88;;;24.23;45.27
49611;BME280;35515;48.766;9.176;2022-08-30T11:05:14;98458.97;;;24.20;45.33
49611;BME280;35515;48.766;9.176;2022-08-30T11:07:52;98463.63;;;24.25;44.55
49611;BME280;35515;48.766;9.176;2022-08-30T11:10:31;98461.91;;;24.29;44.45
49611;BME280;35515;48.766;9.176;2022-08-30T11:13:04;98457.19;;;24.29;44.37
49611;BME280;35515;48.766;9.176;2022-08-30T11:15:35;98453.28;;;24.30;45.14
49611;BME280;35515;48.766;9.176;2022-08-30T11:18:10;98456.31;;;24.34;45.82
49611;BME280;35515;48.766;9.176;2022-08-30T11:20:42;98451.81;;;24.38;47.03
49611;BME280;35515;48.766;9.176;2022-08-30T11:23:24;98452.03;;;24.42;47.51
49611;BME280;35515;48.766;9.176;2022-08-30T11:25:54;98452.94;;;24.56;46.72
49611;BME280;35515;48.766;9.176;2022-08-30T11:28:59;98456.25;;;24.58;46.94
49611;BME280;35515;48.766;9.176;2022-08-30T11:31:34;98450.91;;;24.62;46.33
49611;BME280;35515;48.766;9.176;2022-08-30T11:34:01;98454.28;;;24.59;46.44
49611;BME280;35515;48.766;9.176;2022-08-30T11:42:28;98457.94;;;24.78;46.46
49611;BME280;35515;48.766;9.176;2022-08-30T11:48:01;98455.16;;;24.78;46.19
49611;BME280;35515;48.766;9.176;2022-08-30T11:50:33;98457.31;;;24.81;45.87
49611;BME280;35515;48.766;9.176;2022-08-30T11:53:07;98460.31;;;24.85;46.08
49611;BME280;35515;48.766;9.176;2022-08-30T11:55:44;98455.59;;;24.85;46.02
49611;BME280;35515;48.766;9.176;2022-08-30T11:58:24;98447.97;;;24.77;46.32
49611;BME280;35515;48.766;9.176;2022-08-30T12:01:15;98456.56;;;24.76;46.73
49611;BME280;35515;48.766;9.176;2022-08-30T12:03:42;98441.75;;;24.85;46.14
49611;BME280;35515;48.766;9.176;2022-08-30T12:06:11;98448.50;;;25.12;44.91
49611;BME280;35515;48.766;9.176;2022-08-30T12:08:59;98452.38;;;24.97;45.94
49611;BME280;35515;48.766;9.176;2022-08-30T12:11:59;98447.84;;;25.01;45.88
49611;BME280;35515;48.766;9.176;2022-08-30T12:14:39;98449.28;;;24.99;45.61
49611;BME280;35515;48.766;9.176;2022-08-30T12:17:14;98442.78;;;24.90;45.86
49611;BME280;35515;48.766;9.176;2022-08-30T12:19:59;98440.00;;;24.90;45.50
49611;BME280;35515;48.766;9.176;2022-08-30T12:22:26;98436.66;;;24.93;45.19
49611;BME280;35515;48.766;9.176;2022-08-30T12:24:59;98450.44;;;24.98;44.99
49611;BME280;35515;48.766;9.176;2022-08-30T12:27:28;98444.69;;;25.08;45.12
49611;BME280;35515;48.766;9.176;2022-08-30T12:29:56;98442.53;;;25.05;45.26
49611;BME280;35515;48.766;9.176;2022-08-30T12:32:26;98437.00;;;25.05;45.33
49611;BME280;35515;48.766;9.176;2022-08-30T12:34:54;98443.09;;;25.07;45.15
49611;BME280;35515;48.766;9.176;2022-08-30T12:37:24;98438.22;;;25.32;44.48
49611;BME280;35515;48.766;9.176;2022-08-30T12:40:02;98433.38;;;25.24;44.53
49611;BME280;35515;48.766;9.176;2022-08-30T12:42:31;98427.81;;;25.24;44.28
49611;BME280;35515;48.766;9.176;2022-08-30T12:44:59;98425.38;;;25.22;44.71
49611;BME280;35515;48.766;9.176;2022-08-30T12:47:33;98423.16;;;25.38;44.27
49611;BME280;35515;48.766;9.176;2022-08-30T12:50:05;98414.75;;;25.43;44.38
49611;BME280;35515;48.766;9.176;2022-08-30T12:52:36;98421.13;;;25.58;43.64
49611;BME280;35515;48.766;9.176;2022-08-30T12:55:11;98407.88;;;25.54;43.72
49611;BME280;35515;48.766;9.176;2022-08-30T12:57:40;98414.56;;;25.53;43.43
49611;BME280;35515;48.766;9.176;2022-08-30T13:00:09;98407.69;;;25.65;42.76
49611;BME280;35515;48.766;9.176;2022-08-30T13:02:47;98412.28;;;25.42;43.09
49611;BME280;35515;48.766;9.176;2022-08-30T13:05:43;98404.19;;;25.45;43.14
49611;BME280;35515;48.766;9.176;2022-08-30T13:08:16;98402.34;;;25.41;43.00
49611;BME280;35515;48.766;9.176;2022-08-30T13:10:51;98403.16;;;25.55;42.83
49611;BME280;35515;48.766;9.176;2022-08-30T13:13:42;98393.84;;;25.65;42.89
49611;BME280;35515;48.766;9.176;2022-08-30T13:16:20;98391.56;;;25.67;43.19
49611;BME280;35515;48.766;9.176;2022-08-30T13:18:47;98381.47;;;25.71;43.26
49611;BME280;35515;48.766;9.176;2022-08-30T13:21:24;98373.78;;;25.96;42.55
49611;BME280;35515;48.766;9.176;2022-08-30T13:23:55;98377.28;;;26.15;41.94